Data for 02/06/2007

Time Sea-Level Adjusted Pressure Absolute Pressure Temperature Relative Humidity Dew Point   
(mb) (inHg) (mb) (inHg) (C) (F) (%) (C) (F)
00:05 1020 30.12 849 25.07 6.8 44.2 53 -2.2 28
00:10 1020 30.12 849 25.07 7.1 44.8 52 -2.1 28.2
00:15 1020 30.12 849 25.07 7 44.6 52 -2.1 28.2
00:20 1020 30.12 849 25.07 7 44.6 52 -2.2 28
00:25 1020 30.12 849 25.07 7.2 45 50 -2.4 27.7
00:30 1020 30.12 849 25.07 7.4 45.2 49 -2.6 27.4
00:35 1020 30.12 849 25.07 7.6 45.6 51 -1.9 28.5
00:40 1020 30.12 849 25.07 6.3 43.4 57 -1.6 29.2
00:45 1020 30.12 849 25.07 5.7 42.3 59 -1.7 28.9
00:50 1020 30.12 849 25.07 5.9 42.7 58 -1.7 28.9
00:55 1020 30.12 849 25.07 6.2 43.1 57 -1.8 28.8
01:00 1020 30.12 849 25.07 6.4 43.5 57 -1.6 29.2
01:05 1020 30.12 849 25.07 6.4 43.5 57 -1.5 29.3
01:10 1020 30.12 849 25.07 6.5 43.6 58 -1.3 29.7
01:15 1020 30.12 849 25.07 5.9 42.6 62 -0.9 30.5
01:20 1020 30.12 849 25.07 5.6 42 61 -1.3 29.6
01:25 1020 30.12 849 25.07 5.9 42.6 58 -1.8 28.8
01:30 1020 30.12 849 25.07 6.1 43 55 -2.2 28.1
01:35 1020 30.12 849 25.07 6.3 43.3 56 -1.9 28.6
01:40 1020 30.12 849 25.07 6.1 42.9 58 -1.5 29.4
01:45 1020 30.12 849 25.07 5.8 42.4 59 -1.6 29.1
01:50 1020 30.12 849 25.07 6 42.9 58 -1.6 29.1
01:55 1020 30.12 850 25.1 6.2 43.2 58 -1.4 29.5
02:00 1020 30.12 850 25.1 6.3 43.3 58 -1.4 29.4
02:05 1020 30.12 849 25.07 6.3 43.3 57 -1.6 29.2
02:10 1020 30.12 849 25.07 6.4 43.6 56 -1.6 29.1
02:15 1020 30.12 849 25.07 6.7 44 56 -1.6 29.1
02:20 1020 30.12 849 25.07 6.7 44.1 56 -1.5 29.4
02:25 1020 30.12 849 25.07 6.8 44.3 55 -1.7 29
02:30 1020 30.12 849 25.07 7.1 44.7 54 -1.6 29.2
02:35 1020 30.12 849 25.07 7.2 45 53 -1.6 29.1
02:40 1020 30.12 849 25.07 7 44.6 55 -1.3 29.6
02:45 1020 30.12 849 25.07 6.8 44.2 55 -1.5 29.3
02:50 1020 30.12 849 25.07 6.7 44 55 -1.8 28.8
02:55 1020 30.12 849 25.07 6.9 44.3 55 -1.6 29
03:00 1020 30.12 849 25.07 6.9 44.4 55 -1.5 29.4
03:05 1020 30.12 849 25.07 6.9 44.3 55 -1.5 29.3
03:10 1020 30.12 849 25.07 6.6 44 55 -1.6 29.1
03:15 1020 30.12 849 25.07 6.9 44.4 54 -1.8 28.8
03:20 1020 30.12 849 25.07 7.1 44.7 55 -1.4 29.5
03:25 1020 30.12 849 25.07 7 44.5 55 -1.5 29.3
03:30 1020 30.12 849 25.07 7 44.6 54 -1.5 29.3
03:35 1020 30.12 849 25.07 7.1 44.7 54 -1.5 29.2
03:40 1020 30.12 849 25.07 6.9 44.4 55 -1.4 29.4
03:45 1020 30.12 849 25.07 6.7 44.1 56 -1.3 29.6
03:50 1020 30.12 849 25.07 6.5 43.6 57 -1.4 29.5
03:55 1020 30.12 849 25.07 6.1 42.9 59 -1.3 29.7
04:00 1020 30.12 849 25.07 5.9 42.7 59 -1.5 29.2
04:05 1020 30.12 849 25.07 6.2 43.2 57 -1.6 29.1
04:10 1020 30.12 849 25.07 6.4 43.5 56 -1.7 28.9
04:15 1020 30.12 849 25.07 6.7 44 56 -1.6 29.2
04:20 1020 30.12 849 25.07 6.6 43.9 56 -1.5 29.2
04:25 1020 30.12 849 25.07 6.7 44 56 -1.5 29.2
04:30 1020 30.12 849 25.07 6.8 44.3 55 -1.5 29.4
04:35 1020 30.12 849 25.07 6.8 44.2 56 -1.3 29.6
04:40 1020 30.12 849 25.07 6.6 43.9 57 -1.4 29.5
04:45 1020 30.12 849 25.07 6.4 43.6 57 -1.4 29.5
04:50 1020 30.12 849 25.07 6.3 43.4 58 -1.4 29.5
04:55 1020 30.12 849 25.07 6.4 43.4 58 -1.4 29.5
05:00 1020 30.12 849 25.07 6 42.9 60 -1.2 29.9
05:05 1020 30.12 849 25.07 6 42.7 59 -1.4 29.4
05:10 1020 30.12 849 25.07 6 42.9 59 -1.3 29.7
05:15 1020 30.12 849 25.07 6.1 43 59 -1.3 29.7
05:20 1020 30.12 849 25.07 6.1 43 59 -1.2 29.9
05:25 1020 30.12 849 25.07 6.2 43.2 59 -1.1 30
05:30 1020 30.12 849 25.07 6.2 43.2 59 -1.2 29.8
05:35 1020 30.12 849 25.07 6.2 43.2 59 -1.1 30
05:40 1020 30.12 849 25.07 6.2 43.1 60 -1.1 30.1
05:45 1020 30.12 849 25.07 6.1 43 60 -1.1 30.1
05:50 1020 30.12 849 25.07 6 42.9 60 -1 30.1
05:55 1020 30.12 849 25.07 5.8 42.5 62 -0.9 30.3
06:00 1020 30.12 849 25.07 5.5 42 63 -1 30.2
06:05 1019 30.09 849 25.07 5.2 41.4 64 -1 30.2
06:10 1019 30.09 849 25.07 4.8 40.6 65 -1.3 29.7
06:15 1019 30.09 849 25.07 5 40.9 64 -1.2 29.8
06:20 1019 30.09 849 25.07 5 41 63 -1.5 29.2
06:25 1019 30.09 849 25.07 5.3 41.6 61 -1.5 29.4
06:30 1019 30.09 848 25.04 4.8 40.6 65 -1.1 30
06:35 1019 30.09 848 25.04 4.2 39.5 66 -1.6 29.2
06:40 1019 30.09 848 25.04 4.2 39.6 65 -1.7 29
06:45 1019 30.09 848 25.04 4.4 40 65 -1.6 29
06:50 1019 30.09 848 25.04 4.4 40 65 -1.5 29.3
06:55 1019 30.09 848 25.04 4.5 40 65 -1.6 29.1
07:00 1019 30.09 848 25.04 4.6 40.3 65 -1.4 29.4
07:05 1019 30.09 848 25.04 4.2 39.6 67 -1.4 29.5
07:10 1019 30.09 848 25.04 4.1 39.4 67 -1.5 29.3
07:15 1019 30.09 848 25.04 4 39.3 66 -1.6 29
07:20 1019 30.09 848 25.04 4.2 39.6 66 -1.6 29.2
07:25 1019 30.09 848 25.04 4.3 39.7 65 -1.7 29
07:30 1019 30.09 848 25.04 4.5 40.1 65 -1.5 29.3
07:35 1018 30.06 848 25.04 4.5 40.2 65 -1.5 29.2
07:40 1018 30.06 848 25.04 4.6 40.2 65 -1.5 29.2
07:45 1018 30.06 848 25.04 4.6 40.3 64 -1.6 29.1
07:50 1019 30.09 848 25.04 4.6 40.4 64 -1.5 29.2
07:55 1019 30.09 848 25.04 4.6 40.3 65 -1.5 29.4
08:00 1018 30.06 848 25.04 4.5 40 65 -1.6 29.1
08:05 1018 30.06 847 25.01 4.4 39.9 64 -1.8 28.8
08:10 1018 30.06 847 25.01 4.3 39.8 65 -1.6 29.1
08:15 1018 30.06 847 25.01 4.4 39.9 63 -2 28.4
08:20 1018 30.06 848 25.04 5 41.1 61 -2 28.5
08:25 1019 30.09 848 25.04 5.5 41.9 59 -1.8 28.7
08:30 1019 30.09 848 25.04 5.8 42.4 58 -1.7 28.9
08:35 1019 30.09 848 25.04 5.8 42.4 58 -1.7 28.9
08:40 1019 30.09 848 25.04 5.7 42.3 59 -1.7 28.9
08:45 1019 30.09 848 25.04 5.6 42.2 59 -1.7 29
08:50 1019 30.09 848 25.04 5.6 42.2 60 -1.6 29.2
08:55 1019 30.09 848 25.04 5.7 42.3 61 -1.2 29.8
09:00 1019 30.09 848 25.04 5.6 42 62 -1.1 30.1
09:05 1019 30.09 848 25.04 5.5 41.9 61 -1.3 29.6
09:10 1019 30.09 848 25.04 5.3 41.5 64 -1 30.2
09:15 1019 30.09 848 25.04 4.7 40.5 67 -0.9 30.4
09:20 1019 30.09 848 25.04 4.5 40.1 67 -1 30.2
09:25 1019 30.09 848 25.04 4.5 40.2 66 -1.3 29.7
09:30 1019 30.09 848 25.04 4.6 40.2 67 -0.9 30.3
09:35 1019 30.09 848 25.04 4.7 40.5 66 -1 30.1
09:40 1019 30.09 848 25.04 4.8 40.6 66 -1.1 30.1
09:45 1019 30.09 848 25.04 4.8 40.7 65 -1.2 29.9
09:50 1019 30.09 848 25.04 5 41 64 -1.3 29.7
09:55 1019 30.09 849 25.07 5.3 41.5 61 -1.7 29
10:00 1019 30.09 849 25.07 5.9 42.6 59 -1.4 29.5
10:05 1020 30.12 849 25.07 6.3 43.3 59 -1.2 29.8
10:10 1020 30.12 849 25.07 6.4 43.6 58 -1.1 30
10:15 1020 30.12 849 25.07 6.8 44.2 58 -0.8 30.5
10:20 1020 30.12 849 25.07 6.6 43.9 59 -0.8 30.6
10:25 1020 30.12 849 25.07 6.2 43.1 60 -1 30.1
10:30 1020 30.12 849 25.07 6.1 42.9 59 -1.2 29.8
10:35 1020 30.12 849 25.07 6 42.8 58 -1.5 29.2
10:40 1020 30.12 849 25.07 6 42.9 57 -1.7 28.9
10:45 1020 30.12 849 25.07 5.9 42.5 58 -1.7 29
10:50 1019 30.09 849 25.07 5.8 42.5 59 -1.5 29.3
10:55 1019 30.09 849 25.07 5.8 42.4 59 -1.6 29.2
11:00 1020 30.12 849 25.07 5.9 42.7 59 -1.5 29.3
11:05 1020 30.12 849 25.07 5.8 42.5 59 -1.6 29.2
11:10 1019 30.09 849 25.07 6 42.7 58 -1.6 29.1
11:15 1019 30.09 849 25.07 5.8 42.4 58 -1.7 28.9
11:20 1019 30.09 849 25.07 5.7 42.3 59 -1.6 29.1
11:25 1019 30.09 849 25.07 5.7 42.2 60 -1.4 29.4
11:30 1019 30.09 848 25.04 5.6 42.2 60 -1.5 29.4
11:35 1019 30.09 848 25.04 5.6 42 60 -1.5 29.4
11:40 1019 30.09 848 25.04 5.6 42 61 -1.4 29.4
11:45 1019 30.09 848 25.04 5.6 42.1 59 -1.7 29
11:50 1019 30.09 848 25.04 5.6 42 60 -1.5 29.4
11:55 1019 30.09 848 25.04 5.5 42 60 -1.5 29.3
12:00 1019 30.09 848 25.04 5.5 41.8 60 -1.6 29.2
12:05 1019 30.09 848 25.04 5.5 41.9 61 -1.5 29.3
12:10 1019 30.09 848 25.04 5.5 41.9 61 -1.5 29.3
12:15 1019 30.09 848 25.04 5.5 41.9 61 -1.5 29.3
12:20 1019 30.09 848 25.04 5.6 42.1 60 -1.5 29.3
12:25 1019 30.09 848 25.04 5.7 42.2 60 -1.4 29.4
12:30 1019 30.09 848 25.04 6.1 42.9 58 -1.5 29.2
12:35 1019 30.09 848 25.04 6.4 43.6 58 -1.3 29.6
12:40 1019 30.09 848 25.04 7.1 44.7 56 -1.1 30
12:45 1019 30.09 848 25.04 7.3 45.1 55 -1.1 30.1
12:50 1019 30.09 848 25.04 7.5 45.5 55 -0.9 30.5
12:55 1019 30.09 848 25.04 8 46.4 54 -0.8 30.6
13:00 1019 30.09 848 25.04 8.4 47 53 -0.6 30.9
13:05 1019 30.09 848 25.04 7.8 46.1 55 -0.6 30.9
13:10 1018 30.06 848 25.04 7.9 46.3 53 -1 30.1
13:15 1018 30.06 847 25.01 8 46.3 53 -1.1 30
13:20 1018 30.06 847 25.01 7.9 46.2 53 -1 30.2
13:25 1018 30.06 847 25.01 7.8 46.1 54 -0.8 30.6
13:30 1018 30.06 847 25.01 7.6 45.6 55 -1 30.2
13:35 1018 30.06 847 25.01 7.7 45.9 54 -1.1 30.1
13:40 1018 30.06 847 25.01 7.6 45.7 55 -0.9 30.3
13:45 1018 30.06 847 25.01 7.7 45.8 53 -1.2 29.9
13:50 1018 30.06 847 25.01 7.7 45.8 54 -0.9 30.4
13:55 1018 30.06 847 25.01 7.7 45.9 54 -0.9 30.4
14:00 1017 30.03 847 25.01 7.6 45.8 55 -0.9 30.4
14:05 1017 30.03 847 25.01 7.9 46.1 53 -1 30.2
14:10 1017 30.03 846 24.98 7.7 45.8 55 -0.7 30.7
14:15 1017 30.03 846 24.98 7.7 45.8 55 -0.7 30.7
14:20 1017 30.03 846 24.98 7.6 45.7 55 -0.8 30.5
14:25 1017 30.03 846 24.98 7.6 45.7 56 -0.6 30.9
14:30 1017 30.03 846 24.98 7.6 45.8 55 -0.8 30.6
14:35 1017 30.03 846 24.98 7.6 45.7 55 -0.7 30.7
14:40 1017 30.03 846 24.98 7.5 45.5 56 -0.7 30.8
14:45 1017 30.03 846 24.98 7.6 45.6 56 -0.7 30.7
14:50 1017 30.03 846 24.98 7.5 45.6 56 -0.7 30.7
14:55 1017 30.03 846 24.98 7.6 45.7 56 -0.6 30.9
15:00 1017 30.03 846 24.98 7.6 45.7 56 -0.6 30.9
15:05 1017 30.03 846 24.98 7.6 45.7 56 -0.5 31
15:10 1017 30.03 846 24.98 7.6 45.7 56 -0.5 31.1
15:15 1017 30.03 846 24.98 7.5 45.5 57 -0.6 31
15:20 1017 30.03 846 24.98 7.5 45.5 56 -0.7 30.7
15:25 1017 30.03 847 25.01 7.5 45.5 55 -0.9 30.4
15:30 1017 30.03 847 25.01 7.6 45.6 56 -0.5 31
15:35 1017 30.03 846 24.98 7.5 45.6 57 -0.5 31.1
15:40 1017 30.03 847 25.01 7.6 45.7 56 -0.5 31.1
15:45 1017 30.03 847 25.01 7.5 45.5 56 -0.6 31
15:50 1017 30.03 847 25.01 7.4 45.4 57 -0.5 31.1
15:55 1017 30.03 846 24.98 7.5 45.5 57 -0.5 31
16:00 1017 30.03 846 24.98 7.4 45.2 57 -0.5 31.1
16:05 1017 30.03 846 24.98 7.3 45.1 57 -0.5 31
16:10 1017 30.03 846 24.98 7.2 44.9 58 -0.5 31
16:15 1017 30.03 846 24.98 7 44.5 59 -0.5 31.2
16:20 1017 30.03 846 24.98 6.7 44.1 59 -0.6 31
16:25 1017 30.03 846 24.98 6.7 44.1 59 -0.6 30.9
16:30 1017 30.03 846 24.98 6.6 43.9 59 -0.7 30.8
16:35 1017 30.03 846 24.98 6.5 43.8 60 -0.6 31
16:40 1017 30.03 846 24.98 6.4 43.5 61 -0.5 31
16:45 1017 30.03 846 24.98 6.2 43.1 62 -0.6 31
16:50 1017 30.03 846 24.98 6 42.9 62 -0.6 30.9
16:55 1017 30.03 846 24.98 5.9 42.6 63 -0.7 30.8
17:00 1017 30.03 846 24.98 5.8 42.4 63 -0.7 30.7
17:05 1017 30.03 846 24.98 5.7 42.3 63 -0.7 30.8
17:10 1017 30.03 847 25.01 5.7 42.3 63 -0.7 30.7
17:15 1017 30.03 846 24.98 5.6 42.2 63 -0.7 30.7
17:20 1017 30.03 846 24.98 5.6 42 63 -0.9 30.4
17:25 1017 30.03 846 24.98 5.6 42.1 63 -0.9 30.4
17:30 1017 30.03 846 24.98 5.7 42.3 63 -0.8 30.5
17:35 1017 30.03 846 24.98 5.8 42.5 63 -0.7 30.7
17:40 1017 30.03 846 24.98 5.7 42.2 63 -0.8 30.6
17:45 1017 30.03 846 24.98 5.6 42.1 64 -0.6 30.8
17:50 1017 30.03 846 24.98 5.4 41.8 65 -0.7 30.8
17:55 1017 30.03 846 24.98 5.4 41.6 65 -0.7 30.7
18:00 1017 30.03 847 25.01 5.4 41.7 64 -0.8 30.6
18:05 1017 30.03 847 25.01 5.4 41.7 64 -0.9 30.4
18:10 1017 30.03 847 25.01 5.3 41.5 64 -0.9 30.3
18:15 1017 30.03 846 24.98 5.2 41.4 64 -1 30.2
18:20 1017 30.03 846 24.98 5.2 41.3 65 -0.9 30.3
18:25 1017 30.03 846 24.98 4.9 40.8 67 -0.8 30.6
18:30 1017 30.03 846 24.98 4.7 40.4 66 -1.2 29.8
18:35 1017 30.03 846 24.98 4.9 40.8 65 -1.1 30
18:40 1017 30.03 846 24.98 4.9 40.8 65 -1.1 30
18:45 1017 30.03 846 24.98 4.8 40.7 66 -1.1 30.1
18:50 1017 30.03 846 24.98 4.7 40.4 65 -1.3 29.7
18:55 1017 30.03 846 24.98 4.7 40.4 64 -1.4 29.4
19:00 1017 30.03 846 24.98 4.6 40.4 65 -1.4 29.4
19:05 1017 30.03 846 24.98 4.6 40.2 63 -1.8 28.7
19:10 1017 30.03 846 24.98 4.6 40.3 63 -1.8 28.8
19:15 1017 30.03 846 24.98 4.6 40.2 64 -1.7 28.9
19:20 1017 30.03 846 24.98 4.5 40.1 64 -1.7 28.9
19:25 1017 30.03 846 24.98 4.5 40.1 64 -1.8 28.8
19:30 1017 30.03 846 24.98 4.5 40.1 64 -1.8 28.7
19:35 1017 30.03 846 24.98 4.4 40 64 -1.8 28.8
19:40 1017 30.03 846 24.98 4.3 39.7 65 -1.8 28.8
19:45 1017 30.03 846 24.98 4.2 39.5 65 -1.8 28.8
19:50 1017 30.03 846 24.98 4.3 39.7 65 -1.8 28.7
19:55 1017 30.03 846 24.98 4.4 39.9 64 -1.7 28.9
20:00 1016 30 846 24.98 4.5 40 64 -1.7 29
20:05 1016 30 846 24.98 4.5 40.1 65 -1.6 29.2
20:10 1016 30 846 24.98 4.4 39.9 66 -1.4 29.5
20:15 1016 30 846 24.98 4.2 39.6 66 -1.5 29.4
20:20 1016 30 846 24.98 4.2 39.5 67 -1.4 29.5
20:25 1016 30 846 24.98 4.1 39.4 67 -1.5 29.4
20:30 1016 30 846 24.98 4.2 39.5 67 -1.4 29.5
20:35 1016 30 846 24.98 4.2 39.6 67 -1.4 29.5
20:40 1017 30.03 846 24.98 4.3 39.8 67 -1.3 29.6
20:45 1017 30.03 846 24.98 4.4 39.8 66 -1.4 29.6
20:50 1017 30.03 846 24.98 4.4 39.9 67 -1.3 29.7
20:55 1017 30.03 846 24.98 4.4 39.9 66 -1.3 29.6
21:00 1017 30.03 846 24.98 4.6 40.3 65 -1.3 29.6
21:05 1017 30.03 846 24.98 5.2 41.3 62 -1.5 29.4
21:10 1017 30.03 846 24.98 5.6 42.1 62 -1.1 30.1
21:15 1017 30.03 846 24.98 5.5 41.9 63 -1 30.1
21:20 1017 30.03 846 24.98 4.9 40.9 65 -1 30.2
21:25 1017 30.03 846 24.98 4.6 40.3 66 -1.1 30
21:30 1017 30.03 846 24.98 4.4 40 67 -1 30.1
21:35 1017 30.03 846 24.98 4.4 40 67 -1.1 30
21:40 1017 30.03 846 24.98 4.1 39.5 69 -1.1 30
21:45 1017 30.03 846 24.98 3.8 38.9 70 -1.1 29.9
21:50 1017 30.03 846 24.98 3.8 38.9 70 -1.2 29.8
21:55 1017 30.03 846 24.98 3.9 39.1 69 -1.2 29.9
22:00 1017 30.03 846 24.98 3.9 38.9 70 -1.2 29.9
22:05 1017 30.03 846 24.98 3.8 38.9 69 -1.3 29.7
22:10 1017 30.03 846 24.98 4.1 39.3 68 -1.4 29.5
22:15 1017 30.03 846 24.98 4.4 39.9 67 -1.2 29.8
22:20 1017 30.03 846 24.98 4.3 39.8 68 -1.1 30
22:25 1017 30.03 846 24.98 4.1 39.3 69 -1.1 30
22:30 1017 30.03 846 24.98 3.9 39.1 70 -1.1 30
22:35 1017 30.03 846 24.98 3.8 38.9 70 -1.1 30.1
22:40 1017 30.03 846 24.98 3.8 38.8 71 -1.1 30
22:45 1017 30.03 847 25.01 3.8 38.8 70 -1.1 29.9
22:50 1017 30.03 847 25.01 3.9 39 70 -1.1 30
22:55 1017 30.03 847 25.01 4 39.1 70 -1.1 30
23:00 1017 30.03 847 25.01 4 39.2 69 -1.1 30.1
23:05 1017 30.03 847 25.01 3.9 38.9 70 -1.1 30
23:10 1018 30.06 847 25.01 3.8 38.9 70 -1.1 30
23:15 1018 30.06 847 25.01 3.8 38.8 70 -1.2 29.8
23:20 1018 30.06 847 25.01 3.8 38.9 70 -1.2 29.8
23:25 1018 30.06 847 25.01 3.8 38.9 70 -1.2 29.9
23:30 1018 30.06 847 25.01 3.8 38.9 69 -1.2 29.8
23:35 1018 30.06 847 25.01 3.8 38.8 72 -0.8 30.5
23:40 1018 30.06 847 25.01 3.6 38.4 72 -1.1 30.1
23:45 1018 30.06 847 25.01 3.7 38.6 70 -1.2 29.8
23:50 1018 30.06 847 25.01 3.6 38.5 72 -0.9 30.3
23:55 1018 30.06 847 25.01 3.3 38 74 -1 30.3
24:00 1018 30.06 847 25.01 2.9 37.3 75 -1.1 30